createdAt,value
2016-06-22T00:00:17.615Z,23.15
2016-06-22T00:01:16.524Z,23.19
2016-06-22T00:02:16.667Z,23.19
2016-06-22T00:03:17.210Z,23.16
2016-06-22T00:04:17.155Z,23.2
2016-06-22T00:05:16.542Z,23.15
2016-06-22T00:06:16.550Z,23.19
2016-06-22T00:07:17.178Z,23.25
2016-06-22T00:08:16.570Z,23.17
2016-06-22T00:09:17.194Z,23.17
2016-06-22T00:10:17.190Z,23.17
2016-06-22T00:11:18.219Z,23.15
2016-06-22T00:12:16.613Z,23.17
2016-06-22T00:13:17.343Z,23.22
2016-06-22T00:14:17.206Z,23.2
2016-06-22T00:15:17.230Z,23.22
2016-06-22T00:16:16.600Z,23.16
2016-06-22T00:17:17.240Z,23.19
2016-06-22T00:18:16.618Z,23.15
2016-06-22T00:19:16.623Z,23.19
2016-06-22T00:20:16.631Z,23.27
2016-06-22T00:21:17.294Z,23.13
2016-06-22T00:22:18.163Z,23.16
2016-06-22T00:23:17.269Z,23.15
2016-06-22T00:24:17.674Z,23.27
2016-06-22T00:25:17.266Z,23.15
2016-06-22T00:26:17.290Z,23.19
2016-06-22T00:27:16.666Z,23.22
2016-06-22T00:28:16.676Z,23.15
2016-06-22T00:29:17.319Z,23.2
2016-06-22T00:30:16.707Z,23.2
2016-06-22T00:31:16.691Z,23.17
2016-06-22T00:32:17.334Z,23.16
2016-06-22T00:33:18.650Z,23.15
2016-06-22T00:34:16.701Z,23.22
2016-06-22T00:35:18.238Z,23.12
2016-06-22T00:36:16.722Z,23.27
2016-06-22T00:37:18.407Z,23.16
2016-06-22T00:38:16.123Z,23.1
2016-06-22T00:39:16.742Z,23.15
2016-06-22T00:40:17.362Z,23.09
2016-06-22T00:41:17.359Z,23.17
2016-06-22T00:42:16.791Z,23.16
2016-06-22T00:43:17.383Z,23.17
2016-06-22T00:44:17.386Z,23.19
2016-06-22T00:45:16.781Z,23.19
2016-06-22T00:46:17.830Z,23.19
2016-06-22T00:47:17.408Z,23.22
2016-06-22T00:48:17.416Z,23.15
2016-06-22T00:49:17.421Z,23.16
2016-06-22T00:50:17.450Z,23.22
2016-06-22T00:51:16.862Z,23.2
2016-06-22T00:52:16.810Z,23.16
2016-06-22T00:53:16.830Z,23.16
2016-06-22T00:54:17.447Z,23.17
2016-06-22T00:55:17.434Z,23.2
2016-06-22T00:56:17.456Z,23.12
2016-06-22T00:57:18.237Z,23.16
2016-06-22T00:58:17.453Z,23.15
2016-06-22T00:59:16.842Z,23.12
2016-06-22T01:00:17.488Z,23.19
2016-06-22T01:01:17.480Z,23.16
2016-06-22T01:02:17.478Z,23.22
2016-06-22T01:03:16.875Z,23.22
2016-06-22T01:04:16.871Z,23.13
2016-06-22T01:05:17.511Z,23.12
2016-06-22T01:06:17.662Z,23.15
2016-06-22T01:07:16.892Z,23.17
2016-06-22T01:08:17.520Z,23.22
2016-06-22T01:09:16.915Z,23.25
2016-06-22T01:10:16.286Z,23.16
2016-06-22T01:11:16.915Z,23.2
2016-06-22T01:12:17.539Z,23.22
2016-06-22T01:13:16.918Z,23.2
2016-06-22T01:14:17.547Z,23.17
2016-06-22T01:15:16.938Z,23.17
2016-06-22T01:16:16.934Z,23.17
2016-06-22T01:17:18.089Z,23.17
2016-06-22T01:18:17.573Z,23.1
2016-06-22T01:19:17.093Z,23.17
2016-06-22T01:20:16.960Z,23.15
2016-06-22T01:21:16.979Z,23.13
2016-06-22T01:22:17.599Z,23.23
2016-06-22T01:23:17.599Z,23.15
2016-06-22T01:24:16.986Z,23.13
2016-06-22T01:25:16.998Z,23.22
2016-06-22T01:26:17.619Z,23.16
2016-06-22T01:27:17.613Z,23.15
2016-06-22T01:28:18.122Z,23.16
2016-06-22T01:29:17.621Z,23.16
2016-06-22T01:30:17.323Z,23.15
2016-06-22T01:31:17.018Z,23.22
2016-06-22T01:32:17.651Z,23.16
2016-06-22T01:33:17.659Z,23.15
2016-06-22T01:34:17.042Z,23.15
2016-06-22T01:35:17.679Z,23.17
2016-06-22T01:36:17.666Z,23.13
2016-06-22T01:37:16.435Z,23.12
2016-06-22T01:38:17.061Z,23.07
2016-06-22T01:39:18.122Z,23.02
2016-06-22T01:40:17.684Z,23.07
2016-06-22T01:41:17.744Z,23.13
2016-06-22T01:42:17.074Z,23.12
2016-06-22T01:43:16.617Z,22.98
2016-06-22T01:44:17.107Z,23.13
2016-06-22T01:45:17.097Z,23.09
2016-06-22T01:46:17.099Z,23.1
2016-06-22T01:47:17.733Z,23.02
2016-06-22T01:48:17.733Z,23.07
2016-06-22T01:49:17.731Z,23.07
2016-06-22T01:50:18.278Z,23.02
2016-06-22T01:51:17.749Z,23.01
2016-06-22T01:52:18.603Z,23.09
2016-06-22T01:53:17.763Z,23.16
2016-06-22T01:54:17.156Z,23.13
2016-06-22T01:55:17.812Z,23.07
2016-06-22T01:56:16.542Z,23.09
2016-06-22T01:57:16.541Z,23
2016-06-22T01:58:17.162Z,23.02
2016-06-22T01:59:17.175Z,23.07
2016-06-22T02:00:16.868Z,23.02
2016-06-22T02:01:18.425Z,23.15
2016-06-22T02:02:17.188Z,23.1
2016-06-22T02:03:18.191Z,23.12
2016-06-22T02:04:17.809Z,23.1
2016-06-22T02:05:17.819Z,23.07
2016-06-22T02:06:17.210Z,23.12
2016-06-22T02:07:17.821Z,23.13
2016-06-22T02:08:17.223Z,23.04
2016-06-22T02:09:17.849Z,23.04
2016-06-22T02:10:17.833Z,23.12
2016-06-22T02:11:17.240Z,23.07
2016-06-22T02:12:18.789Z,23.13
2016-06-22T02:13:16.620Z,23.07
2016-06-22T02:14:19.011Z,23.02
2016-06-22T02:15:17.874Z,23.02
2016-06-22T02:16:17.875Z,23.04
2016-06-22T02:17:17.288Z,23.02
2016-06-22T02:18:17.886Z,23.04
2016-06-22T02:19:16.647Z,23.04
2016-06-22T02:20:17.895Z,22.98
2016-06-22T02:21:17.279Z,23.13
2016-06-22T02:22:17.286Z,23.05
2016-06-22T02:23:17.297Z,23.05
2016-06-22T02:24:17.919Z,23.04
2016-06-22T02:25:19.103Z,23
2016-06-22T02:26:17.940Z,23.02
2016-06-22T02:27:17.321Z,23.02
2016-06-22T02:28:17.312Z,23.1
2016-06-22T02:29:17.954Z,23.04
2016-06-22T02:30:17.948Z,23.17
2016-06-22T02:31:17.348Z,23.13
2016-06-22T02:32:17.963Z,23.16
2016-06-22T02:33:17.358Z,23.07
2016-06-22T02:34:18.467Z,23.04
2016-06-22T02:35:17.982Z,23.16
2016-06-22T02:36:17.978Z,23.15
2016-06-22T02:37:17.360Z,23.07
2016-06-22T02:38:17.994Z,23.13
2016-06-22T02:39:17.997Z,23.07
2016-06-22T02:40:17.395Z,23.12
2016-06-22T02:41:17.391Z,23.05
2016-06-22T02:42:18.015Z,23.09
2016-06-22T02:43:17.391Z,23.15
2016-06-22T02:44:17.427Z,23.02
2016-06-22T02:45:18.735Z,23.02
2016-06-22T02:46:17.410Z,23.12
2016-06-22T02:47:18.047Z,23.04
2016-06-22T02:48:18.043Z,23.04
2016-06-22T02:49:17.424Z,23.07
2016-06-22T02:50:18.053Z,23.13
2016-06-22T02:51:18.065Z,23.13
2016-06-22T02:52:18.065Z,23.13
2016-06-22T02:53:18.057Z,23.05
2016-06-22T02:54:17.456Z,23.02
2016-06-22T02:55:18.068Z,23.12
2016-06-22T02:56:18.337Z,23.1
2016-06-22T02:57:17.479Z,23.04
2016-06-22T02:58:17.473Z,23.09
2016-06-22T02:59:18.100Z,23.1
2016-06-22T03:00:18.120Z,23.02
2016-06-22T03:01:16.860Z,22.98
2016-06-22T03:02:16.879Z,23.09
2016-06-22T03:03:17.499Z,23
2016-06-22T03:04:18.111Z,23.02
2016-06-22T03:05:16.889Z,23.01
2016-06-22T03:06:16.910Z,23
2016-06-22T03:07:19.186Z,22.97
2016-06-22T03:08:17.526Z,23.12
2016-06-22T03:09:18.283Z,23
2016-06-22T03:10:17.535Z,22.97
2016-06-22T03:11:17.545Z,23.04
2016-06-22T03:12:18.187Z,23
2016-06-22T03:13:18.165Z,23.04
2016-06-22T03:14:16.936Z,23
2016-06-22T03:15:18.187Z,23.02
2016-06-22T03:16:17.574Z,23.01
2016-06-22T03:17:17.574Z,23.04
2016-06-22T03:18:18.878Z,23
2016-06-22T03:19:18.201Z,23.01
2016-06-22T03:20:18.447Z,23.04
2016-06-22T03:21:17.603Z,23.05
2016-06-22T03:22:17.598Z,23
2016-06-22T03:23:18.226Z,23.02
2016-06-22T03:24:18.230Z,22.98
2016-06-22T03:25:16.992Z,23
2016-06-22T03:26:17.618Z,22.94
2016-06-22T03:27:18.253Z,23.02
2016-06-22T03:28:17.649Z,23.04
2016-06-22T03:29:17.635Z,23.07
2016-06-22T03:30:17.654Z,23.01
2016-06-22T03:31:18.127Z,23.04
2016-06-22T03:32:18.304Z,23.04
2016-06-22T03:33:18.302Z,23.04
2016-06-22T03:34:18.294Z,22.95
2016-06-22T03:35:17.678Z,23
2016-06-22T03:36:18.316Z,23.04
2016-06-22T03:37:17.681Z,23
2016-06-22T03:38:17.697Z,23.04
2016-06-22T03:39:17.699Z,23
2016-06-22T03:40:19.455Z,23
2016-06-22T03:41:18.328Z,23.01
2016-06-22T03:42:17.110Z,23.09
2016-06-22T03:43:17.718Z,23.04
2016-06-22T03:44:17.727Z,23.04
2016-06-22T03:45:17.737Z,23.05
2016-06-22T03:46:18.361Z,23
2016-06-22T03:47:17.751Z,23
2016-06-22T03:48:17.751Z,23
2016-06-22T03:49:17.999Z,23.02
2016-06-22T03:50:18.406Z,23.02
2016-06-22T03:51:17.923Z,23.07
2016-06-22T03:52:17.302Z,23.07
2016-06-22T03:53:18.799Z,23.07
2016-06-22T03:54:18.415Z,23.1
2016-06-22T03:55:17.786Z,23.02
2016-06-22T03:56:17.794Z,23.12
2016-06-22T03:57:17.189Z,23.13
2016-06-22T03:58:17.186Z,23.15
2016-06-22T03:59:17.813Z,22.98
2016-06-22T04:00:18.992Z,23.12
2016-06-22T04:01:18.458Z,23.15
2016-06-22T04:02:18.444Z,23.13
2016-06-22T04:03:17.825Z,23.15
2016-06-22T04:04:19.098Z,23.13
2016-06-22T04:05:18.453Z,23
2016-06-22T04:06:18.494Z,23.15
2016-06-22T04:07:17.855Z,23.04
2016-06-22T04:08:18.490Z,23.09
2016-06-22T04:09:17.866Z,23.04
2016-06-22T04:10:17.878Z,23.16
2016-06-22T04:11:19.017Z,23.16
2016-06-22T04:12:17.879Z,23.16
2016-06-22T04:13:18.666Z,23.17
2016-06-22T04:14:18.518Z,23.15
2016-06-22T04:15:18.514Z,23.16
2016-06-22T04:16:17.899Z,23.16
2016-06-22T04:17:18.530Z,23.16
2016-06-22T04:18:17.914Z,23.17
2016-06-22T04:19:17.919Z,23.16
2016-06-22T04:20:18.551Z,23.07
2016-06-22T04:21:17.948Z,23.19
2016-06-22T04:22:17.952Z,23.16
2016-06-22T04:23:18.567Z,23.15
2016-06-22T04:24:19.264Z,23.16
2016-06-22T04:25:18.576Z,23.13
2016-06-22T04:26:18.582Z,23.07
2016-06-22T04:27:17.966Z,23.2
2016-06-22T04:28:17.973Z,23.17
2016-06-22T04:29:18.603Z,23.1
2016-06-22T04:30:17.994Z,23.15
2016-06-22T04:31:18.602Z,23.12
2016-06-22T04:32:18.007Z,23.16
2016-06-22T04:33:18.628Z,23.17
2016-06-22T04:34:18.005Z,23.15
2016-06-22T04:35:19.627Z,23.16
2016-06-22T04:36:18.033Z,23.17
2016-06-22T04:37:18.683Z,23.19
2016-06-22T04:38:18.033Z,23.05
2016-06-22T04:39:18.661Z,23.15
2016-06-22T04:40:18.038Z,23.09
2016-06-22T04:41:18.675Z,23.16
2016-06-22T04:42:18.674Z,23.15
2016-06-22T04:43:18.057Z,23.13
2016-06-22T04:44:18.260Z,23.19
2016-06-22T04:45:18.073Z,23.17
2016-06-22T04:46:19.324Z,23.17
2016-06-22T04:47:18.691Z,23.16
2016-06-22T04:48:19.101Z,23.16
2016-06-22T04:49:18.702Z,23.15
2016-06-22T04:50:18.094Z,23.16
2016-06-22T04:51:18.730Z,23.17
2016-06-22T04:52:18.777Z,23.16
2016-06-22T04:53:18.747Z,23.16
2016-06-22T04:54:18.122Z,23.17
2016-06-22T04:55:18.105Z,23.2
2016-06-22T04:56:18.749Z,23.16
2016-06-22T04:57:19.763Z,23.17
2016-06-22T04:58:18.186Z,23.27
2016-06-22T04:59:18.149Z,23.15
2016-06-22T05:00:18.181Z,23.22
2016-06-22T05:01:17.543Z,23.27
2016-06-22T05:02:18.788Z,23.17
2016-06-22T05:03:17.561Z,23.25
2016-06-22T05:04:18.826Z,23.15
2016-06-22T05:05:18.801Z,23.2
2016-06-22T05:06:18.681Z,23.27
2016-06-22T05:07:18.191Z,23.17
2016-06-22T05:08:18.874Z,23.35
2016-06-22T05:09:18.204Z,23.32
2016-06-22T05:10:18.210Z,23.31
2016-06-22T05:11:18.212Z,23.35
2016-06-22T05:12:18.226Z,23.31
2016-06-22T05:13:18.842Z,23.28
2016-06-22T05:14:18.867Z,23.31
2016-06-22T05:15:18.240Z,23.33
2016-06-22T05:16:18.855Z,23.2
2016-06-22T05:17:19.045Z,23.19
2016-06-22T05:18:18.460Z,23.16
2016-06-22T05:19:19.174Z,23.23
2016-06-22T05:20:18.277Z,23.23
2016-06-22T05:21:18.886Z,23.2
2016-06-22T05:22:18.266Z,23.25
2016-06-22T05:23:18.897Z,23.19
2016-06-22T05:24:18.907Z,23.15
2016-06-22T05:25:18.911Z,23.23
2016-06-22T05:26:18.913Z,23.2
2016-06-22T05:27:18.531Z,23.19
2016-06-22T05:28:19.283Z,23.15
2016-06-22T05:29:18.933Z,23.17
2016-06-22T05:30:19.181Z,23.13
2016-06-22T05:31:18.326Z,23.23
2016-06-22T05:32:18.337Z,23.17
2016-06-22T05:33:18.356Z,23.17
2016-06-22T05:34:18.334Z,23.22
2016-06-22T05:35:18.354Z,23.15
2016-06-22T05:36:18.977Z,23.22
2016-06-22T05:37:18.351Z,23.22
2016-06-22T05:38:18.365Z,23.23
2016-06-22T05:39:18.363Z,23.19
2016-06-22T05:40:18.374Z,23.2
2016-06-22T05:41:19.898Z,23.27
2016-06-22T05:42:18.382Z,23.32
2016-06-22T05:43:17.771Z,23.35
2016-06-22T05:44:19.019Z,23.19
2016-06-22T05:45:19.010Z,23.23
2016-06-22T05:46:19.027Z,23.31
2016-06-22T05:47:18.461Z,23.28
2016-06-22T05:48:19.036Z,23.35
2016-06-22T05:49:19.051Z,23.35
2016-06-22T05:50:18.424Z,23.35
2016-06-22T05:51:17.816Z,23.39
2016-06-22T05:52:20.307Z,23.47
2016-06-22T05:53:19.066Z,23.53
2016-06-22T05:54:19.083Z,23.53
2016-06-22T05:55:19.073Z,23.54
2016-06-22T05:56:19.093Z,23.73
2016-06-22T05:57:18.471Z,23.83
2016-06-22T05:58:19.094Z,23.84
2016-06-22T05:59:19.171Z,23.63
2016-06-22T06:00:18.498Z,23.69
2016-06-22T06:01:19.268Z,23.78
2016-06-22T06:02:18.517Z,23.84
2016-06-22T06:03:18.504Z,23.8
2016-06-22T06:04:18.521Z,23.91
2016-06-22T06:05:19.143Z,23.79
2016-06-22T06:06:19.153Z,23.87
2016-06-22T06:07:18.538Z,23.95
2016-06-22T06:08:18.562Z,23.98
2016-06-22T06:09:18.555Z,23.98
2016-06-22T06:10:19.195Z,24
2016-06-22T06:11:18.578Z,23.94
2016-06-22T06:12:19.597Z,23.97
2016-06-22T06:13:19.220Z,23.87
2016-06-22T06:14:19.208Z,23.88
2016-06-22T06:15:18.602Z,23.88
2016-06-22T06:16:18.612Z,23.87
2016-06-22T06:17:19.246Z,23.93
2016-06-22T06:18:19.246Z,24
2016-06-22T06:19:18.645Z,24.18
2016-06-22T06:20:19.255Z,24.18
2016-06-22T06:21:18.648Z,24.3
2016-06-22T06:22:18.665Z,24.37
2016-06-22T06:23:19.586Z,24.34
2016-06-22T06:24:18.690Z,24.4
2016-06-22T06:25:19.086Z,24.25
2016-06-22T06:26:18.689Z,24.12
2016-06-22T06:27:19.311Z,24.27
2016-06-22T06:28:19.323Z,24.13
2016-06-22T06:29:18.089Z,24.25
2016-06-22T06:30:19.344Z,24.34
2016-06-22T06:31:18.711Z,24.28
2016-06-22T06:32:18.740Z,24.34
2016-06-22T06:33:18.746Z,24.3
2016-06-22T06:34:20.456Z,24.3
2016-06-22T06:35:19.407Z,24.3
2016-06-22T06:36:19.544Z,24.22
2016-06-22T06:37:18.150Z,24.21
2016-06-22T06:38:19.434Z,24.35
2016-06-22T06:39:18.795Z,24.57
2016-06-22T06:40:19.405Z,24.64
2016-06-22T06:41:18.800Z,24.67
2016-06-22T06:42:19.423Z,24.43
2016-06-22T06:43:18.822Z,24.52
2016-06-22T06:44:18.834Z,24.57
2016-06-22T06:45:20.450Z,24.67
2016-06-22T06:46:19.468Z,24.73
2016-06-22T06:47:20.031Z,24.69
2016-06-22T06:48:18.279Z,24.67
2016-06-22T06:49:18.867Z,24.57
2016-06-22T06:50:18.880Z,24.55
2016-06-22T06:51:18.882Z,24.55
2016-06-22T06:52:19.518Z,24.76
2016-06-22T06:53:18.339Z,24.8
2016-06-22T06:54:18.933Z,24.93
2016-06-22T06:55:18.918Z,24.99
2016-06-22T06:56:20.834Z,25.1
2016-06-22T06:57:19.561Z,25.08
2016-06-22T06:58:19.695Z,25.17
2016-06-22T06:59:19.622Z,25.21
2016-06-22T07:00:19.588Z,25.28
2016-06-22T07:01:20.031Z,25.25
2016-06-22T07:02:18.987Z,25.3
2016-06-22T07:03:18.383Z,25.36
2016-06-22T07:04:19.001Z,25.3
2016-06-22T07:05:19.640Z,25.23
2016-06-22T07:06:19.028Z,25.36
2016-06-22T07:07:19.653Z,25.33
2016-06-22T07:08:19.058Z,25.36
2016-06-22T07:09:18.455Z,25.35
2016-06-22T07:10:19.681Z,25.36
2016-06-22T07:11:19.080Z,25.43
2016-06-22T07:12:18.483Z,25.38
2016-06-22T07:13:18.472Z,25.33
2016-06-22T07:14:19.105Z,25.38
2016-06-22T07:15:19.118Z,25.36
2016-06-22T07:16:19.757Z,25.35
2016-06-22T07:17:19.319Z,25.36
2016-06-22T07:18:19.141Z,25.38
2016-06-22T07:19:19.293Z,25.35
2016-06-22T07:20:20.604Z,25.35
2016-06-22T07:21:19.719Z,25.21
2016-06-22T07:22:19.826Z,25.25
2016-06-22T07:23:18.579Z,25.23
2016-06-22T07:24:19.818Z,25.23
2016-06-22T07:25:19.259Z,25.38
2016-06-22T07:26:19.873Z,25.4
2016-06-22T07:27:20.330Z,25.39
2016-06-22T07:28:19.234Z,25.17
2016-06-22T07:29:19.390Z,25.2
2016-06-22T07:30:19.375Z,25.17
2016-06-22T07:31:19.191Z,25.05
2016-06-22T07:32:19.409Z,24.93
2016-06-22T07:33:19.978Z,24.96
2016-06-22T07:34:19.615Z,24.95
2016-06-22T07:35:18.849Z,24.9
2016-06-22T07:36:19.825Z,24.88
2016-06-22T07:37:19.357Z,24.71
2016-06-22T07:38:18.701Z,24.88
2016-06-22T07:39:20.229Z,24.76
2016-06-22T07:40:20.110Z,24.71
2016-06-22T07:41:19.977Z,24.88
2016-06-22T07:42:19.792Z,24.85
2016-06-22T07:43:20.061Z,24.87
2016-06-22T07:44:20.010Z,25
2016-06-22T07:45:20.179Z,25.09
2016-06-22T07:46:20.014Z,24.93
2016-06-22T07:47:19.416Z,24.91
2016-06-22T07:48:20.024Z,25.08
2016-06-22T07:49:20.109Z,25.09
2016-06-22T07:50:20.038Z,25.13
2016-06-22T07:51:20.397Z,25.05
2016-06-22T07:52:19.456Z,24.95
2016-06-22T07:53:20.306Z,24.91
2016-06-22T07:54:19.458Z,25
2016-06-22T07:55:20.096Z,24.91
2016-06-22T07:56:18.845Z,25
2016-06-22T07:57:19.483Z,25.05
2016-06-22T07:58:19.498Z,25.09
2016-06-22T07:59:20.122Z,24.98
2016-06-22T08:00:20.120Z,24.87
2016-06-22T08:01:19.550Z,24.81
2016-06-22T08:02:21.001Z,24.73
2016-06-22T08:03:20.154Z,24.69
2016-06-22T08:04:21.282Z,24.69
2016-06-22T08:05:18.911Z,24.71
2016-06-22T08:06:19.544Z,24.77
2016-06-22T08:07:20.170Z,24.77
2016-06-22T08:08:20.693Z,24.9
2016-06-22T08:09:21.010Z,24.78
2016-06-22T08:10:20.783Z,24.76
2016-06-22T08:11:20.578Z,24.68
2016-06-22T08:12:20.108Z,24.8
2016-06-22T08:13:20.137Z,24.77
2016-06-22T08:14:20.922Z,24.67
2016-06-22T08:15:21.668Z,24.62
2016-06-22T08:16:20.086Z,24.52
2016-06-22T08:17:20.097Z,24.6
2016-06-22T08:18:20.503Z,24.47
2016-06-22T08:19:20.619Z,24.57
2016-06-22T08:20:20.766Z,24.53
2016-06-22T08:21:20.142Z,24.55
2016-06-22T08:22:20.320Z,24.53
2016-06-22T08:23:20.945Z,24.58
2016-06-22T08:24:21.393Z,24.53
2016-06-22T08:25:20.842Z,24.46
2016-06-22T08:26:20.913Z,24.45
2016-06-22T08:27:20.573Z,24.5
2016-06-22T08:28:20.882Z,24.49
2016-06-22T08:29:21.023Z,24.57
2016-06-22T08:30:21.281Z,24.55
2016-06-22T08:31:20.152Z,24.5
2016-06-22T08:32:20.242Z,24.52
2016-06-22T08:33:20.366Z,24.53
2016-06-22T08:34:21.011Z,24.57
2016-06-22T08:35:21.973Z,24.52
2016-06-22T08:36:21.228Z,24.5
2016-06-22T08:37:21.342Z,24.5
2016-06-22T08:38:20.802Z,24.47
2016-06-22T08:39:21.423Z,24.52
2016-06-22T08:40:20.991Z,24.52
2016-06-22T08:41:20.402Z,24.49
2016-06-22T08:42:19.802Z,24.58
2016-06-22T08:43:20.426Z,24.53
2016-06-22T08:44:19.809Z,24.62
2016-06-22T08:45:20.432Z,24.55
2016-06-22T08:46:21.533Z,24.58
2016-06-22T08:47:20.462Z,24.57
2016-06-22T08:48:21.198Z,24.47
2016-06-22T08:49:20.486Z,24.47
2016-06-22T08:50:20.479Z,24.46
2016-06-22T08:51:19.856Z,24.49
2016-06-22T08:52:20.491Z,24.43
2016-06-22T08:53:20.509Z,24.45
2016-06-22T08:54:19.874Z,24.45
2016-06-22T08:55:19.630Z,24.52
2016-06-22T08:56:20.525Z,24.5
2016-06-22T08:57:20.525Z,24.47
2016-06-22T08:58:19.316Z,24.37
2016-06-22T08:59:20.886Z,24.49
2016-06-22T09:00:19.323Z,24.35
2016-06-22T09:01:19.321Z,24.43
2016-06-22T09:02:19.990Z,24.37
2016-06-22T09:03:20.568Z,24.42
2016-06-22T09:04:19.957Z,24.32
2016-06-22T09:05:20.589Z,24.35
2016-06-22T09:06:20.821Z,24.4
2016-06-22T09:07:19.984Z,24.34
2016-06-22T09:08:20.979Z,24.31
2016-06-22T09:09:20.606Z,24.37
2016-06-22T09:10:20.631Z,24.4
2016-06-22T09:11:20.619Z,24.45
2016-06-22T09:12:20.007Z,24.46
2016-06-22T09:13:20.021Z,24.43
2016-06-22T09:14:19.408Z,24.45
2016-06-22T09:15:20.643Z,24.47
2016-06-22T09:16:20.662Z,24.42
2016-06-22T09:17:20.910Z,24.4
2016-06-22T09:18:20.056Z,24.35
2016-06-22T09:19:21.183Z,24.39
2016-06-22T09:20:20.735Z,24.35
2016-06-22T09:21:20.725Z,24.37
2016-06-22T09:22:20.072Z,24.4
2016-06-22T09:23:20.718Z,24.39
2016-06-22T09:24:20.719Z,24.43
2016-06-22T09:25:20.729Z,24.42
2016-06-22T09:26:20.097Z,24.45
2016-06-22T09:27:20.758Z,24.35
2016-06-22T09:28:20.127Z,24.42
2016-06-22T09:29:20.125Z,24.42
2016-06-22T09:30:21.231Z,24.37
2016-06-22T09:31:20.126Z,24.39
2016-06-22T09:32:21.017Z,24.42
2016-06-22T09:33:20.782Z,24.37
2016-06-22T09:34:20.383Z,24.35
2016-06-22T09:35:20.591Z,24.4
2016-06-22T09:36:19.561Z,24.43
2016-06-22T09:37:20.797Z,24.31
2016-06-22T09:38:20.198Z,24.4
2016-06-22T09:39:20.815Z,24.39
2016-06-22T09:40:20.834Z,24.35
2016-06-22T09:41:19.851Z,24.39
2016-06-22T09:42:20.225Z,24.39
2016-06-22T09:43:21.701Z,24.42
2016-06-22T09:44:20.262Z,24.32
2016-06-22T09:45:20.865Z,24.39
2016-06-22T09:46:20.248Z,24.32
2016-06-22T09:47:20.884Z,24.35
2016-06-22T09:48:20.260Z,24.34
2016-06-22T09:49:20.877Z,24.4
2016-06-22T09:50:21.898Z,24.37
2016-06-22T09:51:20.895Z,24.32
2016-06-22T09:52:21.507Z,24.39
2016-06-22T09:53:20.918Z,24.31
2016-06-22T09:54:20.292Z,24.39
2016-06-22T09:55:20.370Z,24.4
2016-06-22T09:56:20.308Z,24.42
2016-06-22T09:57:20.937Z,24.35
2016-06-22T09:58:20.320Z,24.42
2016-06-22T09:59:20.339Z,24.39
2016-06-22T10:00:20.339Z,24.37
2016-06-22T10:01:20.343Z,24.39
2016-06-22T10:02:20.472Z,24.4
2016-06-22T10:03:22.267Z,24.37
2016-06-22T10:04:21.106Z,24.43
2016-06-22T10:05:19.753Z,24.4
2016-06-22T10:06:20.996Z,24.27
2016-06-22T10:07:20.389Z,24.37
2016-06-22T10:08:19.770Z,24.28
2016-06-22T10:09:20.399Z,24.3
2016-06-22T10:10:19.823Z,24.32
2016-06-22T10:11:20.414Z,24.3
2016-06-22T10:12:20.616Z,24.35
2016-06-22T10:13:20.445Z,24.39
2016-06-22T10:14:20.439Z,24.37
2016-06-22T10:15:21.060Z,24.34
2016-06-22T10:16:21.055Z,24.42
2016-06-22T10:17:21.067Z,24.42
2016-06-22T10:18:20.473Z,24.39
2016-06-22T10:19:20.525Z,24.43
2016-06-22T10:20:21.119Z,24.5
2016-06-22T10:21:20.476Z,24.53
2016-06-22T10:22:20.482Z,24.49
2016-06-22T10:23:22.053Z,24.52
2016-06-22T10:24:21.104Z,24.47
2016-06-22T10:25:20.533Z,24.53
2016-06-22T10:26:20.509Z,24.53
2016-06-22T10:27:20.523Z,24.46
2016-06-22T10:28:21.159Z,24.52
2016-06-22T10:29:19.903Z,24.49
2016-06-22T10:30:20.543Z,24.6
2016-06-22T10:31:20.582Z,24.49
2016-06-22T10:32:20.548Z,24.53
2016-06-22T10:33:21.176Z,24.49
2016-06-22T10:34:22.136Z,24.5
2016-06-22T10:35:21.230Z,24.45
2016-06-22T10:36:20.587Z,24.45
2016-06-22T10:37:21.192Z,24.47
2016-06-22T10:38:19.974Z,24.39
2016-06-22T10:39:20.591Z,24.39
2016-06-22T10:40:21.223Z,24.45
2016-06-22T10:41:21.239Z,24.34
2016-06-22T10:42:21.243Z,24.45
2016-06-22T10:43:19.936Z,24.35
2016-06-22T10:44:21.256Z,24.4
2016-06-22T10:45:20.036Z,24.42
2016-06-22T10:46:21.273Z,24.35
2016-06-22T10:47:22.089Z,24.37
2016-06-22T10:48:20.654Z,24.42
2016-06-22T10:49:21.979Z,24.34
2016-06-22T10:50:20.055Z,24.37
2016-06-22T10:51:21.329Z,24.42
2016-06-22T10:52:20.687Z,24.37
2016-06-22T10:53:21.310Z,24.32
2016-06-22T10:54:20.730Z,24.37
2016-06-22T10:55:21.328Z,24.32
2016-06-22T10:56:21.354Z,24.34
2016-06-22T10:57:21.346Z,24.35
2016-06-22T10:58:20.726Z,24.39
2016-06-22T10:59:21.340Z,24.3
2016-06-22T11:00:21.884Z,24.39
2016-06-22T11:01:21.377Z,24.3
2016-06-22T11:02:20.744Z,24.34
2016-06-22T11:03:21.381Z,24.32
2016-06-22T11:04:20.763Z,24.37
2016-06-22T11:05:21.404Z,24.4
2016-06-22T11:06:21.454Z,24.53
2016-06-22T11:07:20.837Z,24.45
2016-06-22T11:08:20.792Z,24.47
2016-06-22T11:09:20.815Z,24.35
2016-06-22T11:10:21.418Z,24.47
2016-06-22T11:11:21.565Z,24.45
2016-06-22T11:12:20.827Z,24.39
2016-06-22T11:13:20.215Z,24.43
2016-06-22T11:14:20.840Z,24.39
2016-06-22T11:15:20.214Z,24.39
2016-06-22T11:16:20.221Z,24.46
2016-06-22T11:17:20.882Z,24.45
2016-06-22T11:18:20.231Z,24.42
2016-06-22T11:19:21.478Z,24.47
2016-06-22T11:20:22.298Z,24.4
2016-06-22T11:21:21.496Z,24.45
2016-06-22T11:22:21.504Z,24.53
2016-06-22T11:23:20.900Z,24.47
2016-06-22T11:24:22.071Z,24.47
2016-06-22T11:25:21.532Z,24.47
2016-06-22T11:26:21.579Z,24.46
2016-06-22T11:27:20.932Z,24.42
2016-06-22T11:28:21.541Z,24.46
2016-06-22T11:29:20.312Z,24.47
2016-06-22T11:30:21.561Z,24.35
2016-06-22T11:31:21.563Z,24.45
2016-06-22T11:32:21.555Z,24.47
2016-06-22T11:33:21.173Z,24.45
2016-06-22T11:34:20.958Z,24.45
2016-06-22T11:35:20.968Z,24.45
2016-06-22T11:36:20.982Z,24.42
2016-06-22T11:37:21.596Z,24.45
2016-06-22T11:38:20.992Z,24.47
2016-06-22T11:39:20.997Z,24.39
2016-06-22T11:40:21.016Z,24.45
2016-06-22T11:41:20.396Z,24.45
2016-06-22T11:42:21.637Z,24.45
2016-06-22T11:43:21.020Z,24.5
2016-06-22T11:44:21.659Z,24.47
2016-06-22T11:45:21.035Z,24.39
2016-06-22T11:46:22.566Z,24.4
2016-06-22T11:47:21.661Z,24.45
2016-06-22T11:48:20.433Z,24.4
2016-06-22T11:49:21.680Z,24.47
2016-06-22T11:50:21.080Z,24.45
2016-06-22T11:51:21.700Z,24.4
2016-06-22T11:52:20.464Z,24.4
2016-06-22T11:53:20.470Z,24.4
2016-06-22T11:54:21.090Z,24.37
2016-06-22T11:55:22.737Z,24.34
2016-06-22T11:56:21.716Z,24.39
2016-06-22T11:57:22.682Z,24.35
2016-06-22T11:58:21.178Z,24.42
2016-06-22T11:59:21.755Z,24.42
2016-06-22T12:00:20.518Z,24.47
2016-06-22T12:01:21.146Z,24.32
2016-06-22T12:02:21.752Z,24.39
2016-06-22T12:03:21.765Z,24.42
2016-06-22T12:04:21.778Z,24.45
2016-06-22T12:05:21.787Z,24.42
2016-06-22T12:06:20.566Z,24.45
2016-06-22T12:07:21.800Z,24.47
2016-06-22T12:08:22.114Z,24.47
2016-06-22T12:09:21.842Z,24.47
2016-06-22T12:10:21.214Z,24.45
2016-06-22T12:11:21.834Z,24.37
2016-06-22T12:12:21.837Z,24.42
2016-06-22T12:13:21.213Z,24.47
2016-06-22T12:15:21.215Z,24.47
2016-06-22T12:16:21.867Z,24.39
2016-06-22T12:17:20.618Z,24.49
2016-06-22T12:18:21.252Z,24.46
2016-06-22T12:19:21.550Z,24.43
2016-06-22T12:20:21.877Z,24.47
2016-06-22T12:21:21.261Z,24.46
2016-06-22T12:22:21.903Z,24.43
2016-06-22T12:23:21.905Z,24.47
2016-06-22T12:24:21.908Z,24.42
2016-06-22T12:25:21.909Z,24.43
2016-06-22T12:26:21.289Z,24.49
2016-06-22T12:27:21.303Z,24.42
2016-06-22T12:28:21.306Z,24.45
2016-06-22T12:29:21.948Z,24.49
2016-06-22T12:30:21.946Z,24.46
2016-06-22T12:31:21.335Z,24.5
2016-06-22T12:32:22.396Z,24.5
2016-06-22T12:33:21.344Z,24.5
2016-06-22T12:34:21.360Z,24.52
2016-06-22T12:35:21.359Z,24.49
2016-06-22T12:36:21.368Z,24.47
2016-06-22T12:37:21.978Z,24.55
2016-06-22T12:38:21.369Z,24.58
2016-06-22T12:39:21.381Z,24.5
2016-06-22T12:40:21.392Z,24.55
2016-06-22T12:41:21.402Z,24.53
2016-06-22T12:42:21.426Z,24.52
2016-06-22T12:43:22.995Z,24.57
2016-06-22T12:44:22.041Z,24.5
2016-06-22T12:45:22.048Z,24.57
2016-06-22T12:46:22.040Z,24.58
2016-06-22T12:47:22.055Z,24.61
2016-06-22T12:48:22.064Z,24.57
2016-06-22T12:49:21.439Z,24.52
2016-06-22T12:50:21.476Z,24.6
2016-06-22T12:51:20.858Z,24.53
2016-06-22T12:52:21.471Z,24.58
2016-06-22T12:53:22.109Z,24.58
2016-06-22T12:54:22.395Z,24.57
2016-06-22T12:55:22.110Z,24.57
2016-06-22T12:56:21.511Z,24.61
2016-06-22T12:57:21.547Z,24.58
2016-06-22T12:58:20.948Z,24.6